Time;durP1;ratioP1;P1;durP2;ratioP2;P2;SDS_P1;SDS_P2;PMS_P1;PMS_P2;Temp;Humidity;BMP_temperature;BMP_pressure;BME280_temperature;BME280_humidity;BME280_pressure;Samples;Min_cycle;Max_cycle;Signal;HPM_P1;HPM_P2
2023/04/21 00:01:59;;;;;;;;;;;;;;;11.88;74.99;102018.97;5075912;28;4088;-78
2023/04/21 00:04:26;;;;;;;;;;;;;;;11.88;75.23;102027.06;5079325;28;5189;-76
2023/04/21 00:06:53;;;;;;;;;;;;;;;11.87;75.05;102025.41;5079397;28;2140;-76
2023/04/21 00:09:19;;;;;;;;;;;;;;;11.86;75.04;102025.63;5080106;28;3924;-77
2023/04/21 00:11:46;;;;;;;;;;;;;;;11.85;74.98;102027.44;5077429;28;2211;-76
2023/04/21 00:14:13;;;;;;;;;;;;;;;11.83;75.18;102021.41;5080244;28;2129;-75
2023/04/21 00:16:39;;;;;;;;;;;;;;;11.83;75.14;102027.63;5076909;28;2113;-77
2023/04/21 00:19:06;;;;;;;;;;;;;;;11.81;75.06;102023.44;5063079;28;1643;-77
2023/04/21 00:21:32;;;;;;;;;;;;;;;11.79;75.04;102018.25;5080934;28;4240;-78
2023/04/21 00:23:59;;;;;;;;;;;;;;;11.79;74.97;102017.41;5064592;28;2292;-77
2023/04/21 00:26:25;;;;;;;;;;;;;;;11.77;75.13;102023.00;5064767;28;1996;-77
2023/04/21 00:28:54;;;;;;;;;;;;;;;11.76;74.90;102013.22;5081726;28;2101;-77
2023/04/21 00:31:20;;;;;;;;;;;;;;;11.76;75.01;102017.78;5080956;28;2049;-77
2023/04/21 00:33:47;;;;;;;;;;;;;;;11.76;74.98;102012.38;5081488;28;1527;-76
2023/04/21 00:36:14;;;;;;;;;;;;;;;11.74;75.03;102018.00;5062835;28;1512;-79
2023/04/21 00:38:40;;;;;;;;;;;;;;;11.73;74.90;102015.47;5080887;28;2135;-78
2023/04/21 00:41:07;;;;;;;;;;;;;;;11.71;75.02;102010.28;5080701;28;2053;-78
2023/04/21 00:43:33;;;;;;;;;;;;;;;11.70;74.97;102010.44;5078543;28;1501;-77
2023/04/21 00:46:00;;;;;;;;;;;;;;;11.69;74.99;102012.31;5080885;28;1618;-78
2023/04/21 00:48:26;;;;;;;;;;;;;;;11.68;74.83;102010.66;5082390;28;1946;-76
2023/04/21 00:50:53;;;;;;;;;;;;;;;11.67;75.02;102008.97;5081652;28;2037;-78
2023/04/21 00:53:19;;;;;;;;;;;;;;;11.67;74.87;102005.44;5079709;28;2018;-78
2023/04/21 00:55:46;;;;;;;;;;;;;;;11.64;74.77;102009.34;5079472;28;1793;-77
2023/04/21 00:58:12;;;;;;;;;;;;;;;11.64;74.96;101998.56;5080655;28;994;-76
2023/04/21 01:00:39;;;;;;;;;;;;;;;11.63;74.85;101993.38;5081073;28;2084;-79
2023/04/21 01:03:06;;;;;;;;;;;;;;;11.62;74.72;101999.78;5081397;28;2001;-78
2023/04/21 01:05:33;;;;;;;;;;;;;;;11.60;74.74;101997.28;5082479;28;1471;-78
2023/04/21 01:07:59;;;;;;;;;;;;;;;11.59;74.87;101999.16;5079762;28;1522;-78
2023/04/21 01:10:26;;;;;;;;;;;;;;;11.58;74.92;102004.72;5078197;28;5100;-75
2023/04/21 01:12:52;;;;;;;;;;;;;;;11.56;74.87;102004.09;5080428;28;4151;-77
2023/04/21 01:15:19;;;;;;;;;;;;;;;11.55;74.84;102003.25;5080030;28;2147;-78
2023/04/21 01:17:45;;;;;;;;;;;;;;;11.53;74.85;101997.22;5079427;28;3877;-76
2023/04/21 01:20:12;;;;;;;;;;;;;;;11.53;74.87;102002.63;5081018;28;1904;-77
2023/04/21 01:22:38;;;;;;;;;;;;;;;11.52;74.60;102000.09;5080721;28;1999;-79
2023/04/21 01:25:05;;;;;;;;;;;;;;;11.51;74.70;101993.03;5076877;28;2322;-77
2023/04/21 01:27:32;;;;;;;;;;;;;;;11.50;74.62;102002.13;5062356;28;2355;-78
2023/04/21 01:29:59;;;;;;;;;;;;;;;11.48;74.70;101998.81;5078650;28;3905;-75
2023/04/21 01:32:25;;;;;;;;;;;;;;;11.46;74.68;101990.91;5080314;28;2098;-79
2023/04/21 01:34:52;;;;;;;;;;;;;;;11.45;74.66;101993.81;5079438;28;2342;-78
2023/04/21 01:37:19;;;;;;;;;;;;;;;11.43;74.73;101988.56;5079785;28;2013;-77
2023/04/21 01:39:45;;;;;;;;;;;;;;;11.43;74.68;101993.97;5078336;28;2187;-78
2023/04/21 01:42:12;;;;;;;;;;;;;;;11.42;74.59;101989.63;5062859;28;2125;-77
2023/04/21 01:44:38;;;;;;;;;;;;;;;11.42;74.45;101988.78;5077191;28;1522;-76
2023/04/21 01:47:11;;;;;;;;;;;;;;;11.40;74.62;101988.97;5076327;28;2061;-77
2023/04/21 01:49:37;;;;;;;;;;;;;;;11.38;74.50;101985.59;5081227;28;2181;-77
2023/04/21 01:52:04;;;;;;;;;;;;;;;11.37;74.48;101994.72;5058208;28;2479;-78
2023/04/21 01:54:30;;;;;;;;;;;;;;;11.36;74.67;101991.22;5066606;28;2030;-77
2023/04/21 01:56:57;;;;;;;;;;;;;;;11.34;74.32;101998.66;5075715;28;2180;-78
2023/04/21 01:59:23;;;;;;;;;;;;;;;11.33;74.54;101996.16;5070861;28;2253;-76
2023/04/21 02:01:50;;;;;;;;;;;;;;;11.32;74.52;101992.63;5067516;28;1915;-75
2023/04/21 02:04:17;;;;;;;;;;;;;;;11.32;74.32;101998.03;5072542;28;1870;-76
2023/04/21 02:06:43;;;;;;;;;;;;;;;11.30;74.42;101996.53;5068934;28;1914;-79
2023/04/21 02:09:10;;;;;;;;;;;;;;;11.29;74.40;101989.44;5064571;28;2355;-76
2023/04/21 02:11:36;;;;;;;;;;;;;;;11.28;74.38;101999.41;5079367;28;2201;-77
2023/04/21 02:14:03;;;;;;;;;;;;;;;11.26;74.29;101996.06;5069030;28;2054;-75
2023/04/21 02:16:29;;;;;;;;;;;;;;;11.25;74.32;101986.31;5069911;28;2021;-77
2023/04/21 02:18:56;;;;;;;;;;;;;;;11.24;74.36;101987.34;5069531;28;4862;-75
2023/04/21 02:21:23;;;;;;;;;;;;;;;11.23;74.27;101990.22;5068555;28;3879;-76
2023/04/21 02:23:50;;;;;;;;;;;;;;;11.22;74.22;101989.38;5068239;28;2133;-76
2023/04/21 02:26:16;;;;;;;;;;;;;;;11.20;74.32;101985.19;5075776;28;3783;-77
2023/04/21 02:28:43;;;;;;;;;;;;;;;11.20;74.23;101987.88;5080119;28;2227;-78
2023/04/21 02:31:09;;;;;;;;;;;;;;;11.18;74.12;101981.84;5072391;28;3462;-76
2023/04/21 02:33:36;;;;;;;;;;;;;;;11.17;74.26;101986.41;5080119;28;2530;-78
2023/04/21 02:36:02;;;;;;;;;;;;;;;11.17;74.18;101988.28;5055740;28;2025;-77
2023/04/21 02:38:29;;;;;;;;;;;;;;;11.14;74.18;101982.22;5070756;28;2609;-78
2023/04/21 02:40:55;;;;;;;;;;;;;;;11.14;73.98;101984.09;5054324;28;2043;-77
2023/04/21 02:43:22;;;;;;;;;;;;;;;11.12;74.15;101983.47;5082894;28;1517;-77
2023/04/21 02:45:48;;;;;;;;;;;;;;;11.10;73.91;101980.09;5072000;28;1912;-78
2023/04/21 02:48:16;;;;;;;;;;;;;;;11.10;74.09;101977.41;5062623;28;1765;-77
2023/04/21 02:50:42;;;;;;;;;;;;;;;11.09;73.91;101978.44;5075794;28;2443;-78
2023/04/21 02:53:09;;;;;;;;;;;;;;;11.06;74.09;101982.34;5070695;28;1975;-77
2023/04/21 02:55:35;;;;;;;;;;;;;;;11.06;73.94;101981.50;5056495;28;2327;-78
2023/04/21 02:58:02;;;;;;;;;;;;;;;11.05;73.87;101977.97;5075521;28;2148;-77
2023/04/21 03:00:29;;;;;;;;;;;;;;;11.04;73.83;101976.31;5053141;28;1993;-78
2023/04/21 03:02:56;;;;;;;;;;;;;;;11.02;73.85;101974.81;5053739;28;1954;-76
2023/04/21 03:05:22;;;;;;;;;;;;;;;11.00;73.88;101977.72;5074012;28;2030;-76
2023/04/21 03:07:49;;;;;;;;;;;;;;;11.00;73.91;101976.84;5072385;28;2018;-76
2023/04/21 03:10:16;;;;;;;;;;;;;;;10.99;73.80;101972.50;5072293;28;2097;-75
2023/04/21 03:12:42;;;;;;;;;;;;;;;10.97;73.95;101974.53;5078204;28;1655;-78
2023/04/21 03:15:10;;;;;;;;;;;;;;;10.97;73.81;101974.53;5075049;28;1967;-78
2023/04/21 03:17:36;;;;;;;;;;;;;;;10.96;73.91;101973.69;5064720;28;1861;-76
2023/04/21 03:20:07;;;;;;;;;;;;;;;10.94;73.72;101972.22;5070828;28;4623;-77
2023/04/21 03:22:33;;;;;;;;;;;;;;;10.94;73.92;101972.22;5072501;28;3846;-77
2023/04/21 03:25:00;;;;;;;;;;;;;;;10.90;73.73;101969.88;5068300;28;3924;-78
2023/04/21 03:27:26;;;;;;;;;;;;;;;10.90;73.67;101963.66;5075702;28;1908;-78
2023/04/21 03:29:53;;;;;;;;;;;;;;;10.89;73.67;101959.31;5052747;28;2063;-77
2023/04/21 03:32:19;;;;;;;;;;;;;;;10.88;73.65;101963.88;5072167;28;2073;-76
2023/04/21 03:34:46;;;;;;;;;;;;;;;10.87;73.74;101962.19;5081990;28;1946;-78
2023/04/21 03:37:12;;;;;;;;;;;;;;;10.84;73.58;101957.16;5075140;28;3703;-76
2023/04/21 03:39:39;;;;;;;;;;;;;;;10.84;73.62;101959.03;5068696;28;1742;-75
2023/04/21 03:42:05;;;;;;;;;;;;;;;10.83;73.60;101960.06;5067759;28;2316;-77
2023/04/21 03:44:32;;;;;;;;;;;;;;;10.81;73.65;101960.25;5055606;28;2573;-78
2023/04/21 03:46:59;;;;;;;;;;;;;;;10.80;73.67;101950.50;5070234;28;2402;-77
2023/04/21 03:49:25;;;;;;;;;;;;;;;10.80;73.52;101953.19;5072709;28;2061;-78
2023/04/21 03:51:53;;;;;;;;;;;;;;;10.78;73.50;101957.91;5072680;28;1822;-75
2023/04/21 03:54:20;;;;;;;;;;;;;;;10.76;73.51;101954.56;5078152;28;2144;-76
2023/04/21 03:56:47;;;;;;;;;;;;;;;10.75;73.50;101947.50;5069783;28;1903;-78
2023/04/21 03:59:13;;;;;;;;;;;;;;;10.74;73.45;101951.25;5072856;28;2110;-77
2023/04/21 04:01:41;;;;;;;;;;;;;;;10.72;73.32;101947.88;5071608;28;2266;-78
2023/04/21 04:04:07;;;;;;;;;;;;;;;10.73;73.23;101946.03;5071753;28;1700;-77
2023/04/21 04:06:34;;;;;;;;;;;;;;;10.71;73.43;101946.22;5070471;28;1722;-78
2023/04/21 04:09:03;;;;;;;;;;;;;;;10.70;73.25;101941.84;5071171;28;2002;-78
2023/04/21 04:11:29;;;;;;;;;;;;;;;10.69;73.35;101942.88;5071726;28;2057;-77
2023/04/21 04:13:56;;;;;;;;;;;;;;;10.68;73.44;101941.22;5077904;28;1776;-77
2023/04/21 04:16:23;;;;;;;;;;;;;;;10.68;73.23;101952.81;5071715;28;2089;-78
2023/04/21 04:18:50;;;;;;;;;;;;;;;10.67;73.09;101943.03;5070705;28;2112;-78
2023/04/21 04:21:16;;;;;;;;;;;;;;;10.65;73.05;101947.81;5072783;28;2014;-78
2023/04/21 04:23:43;;;;;;;;;;;;;;;10.64;73.20;101948.81;5055679;28;1932;-77
2023/04/21 04:26:10;;;;;;;;;;;;;;;10.63;73.24;101951.69;5069783;28;2110;-77
2023/04/21 04:28:36;;;;;;;;;;;;;;;10.63;73.25;101946.31;5072136;28;4350;-77
2023/04/21 04:31:03;;;;;;;;;;;;;;;10.60;73.23;101942.13;5052327;28;4064;-78
2023/04/21 04:33:30;;;;;;;;;;;;;;;10.60;73.02;101946.69;5072501;28;2030;-78
2023/04/21 04:35:57;;;;;;;;;;;;;;;10.58;73.10;101941.47;5073962;28;3616;-78
2023/04/21 04:38:23;;;;;;;;;;;;;;;10.60;73.16;101944.00;5048561;28;1994;-78
2023/04/21 04:40:52;;;;;;;;;;;;;;;10.64;72.81;101943.41;5058400;28;2364;-76
2023/04/21 04:43:18;;;;;;;;;;;;;;;10.75;72.46;101946.69;5062703;28;2149;-77
2023/04/21 04:45:45;;;;;;;;;;;;;;;10.63;72.57;101944.44;5073541;28;2076;-79
2023/04/21 04:48:12;;;;;;;;;;;;;;;10.59;72.83;101948.56;5069610;28;2951;-78
2023/04/21 04:50:38;;;;;;;;;;;;;;;10.60;72.66;101944.00;5077012;28;2140;-79
2023/04/21 04:53:05;;;;;;;;;;;;;;;10.72;72.19;101944.38;5077111;28;1861;-77
2023/04/21 04:55:31;;;;;;;;;;;;;;;10.75;72.04;101950.22;5069943;28;1903;-79
2023/04/21 04:57:58;;;;;;;;;;;;;;;10.67;72.17;101947.59;5073159;28;2066;-77
2023/04/21 05:00:24;;;;;;;;;;;;;;;10.69;72.03;101948.25;5078129;28;2840;-77
2023/04/21 05:02:51;;;;;;;;;;;;;;;10.80;71.76;101946.97;5078634;28;3882;-78
2023/04/21 05:05:17;;;;;;;;;;;;;;;10.81;71.64;101948.63;5075361;28;2264;-77
2023/04/21 05:07:44;;;;;;;;;;;;;;;10.67;71.98;101955.69;5079899;28;2710;-79
2023/04/21 05:10:10;;;;;;;;;;;;;;;10.88;71.02;101949.53;5062977;28;1914;-77
2023/04/21 05:12:37;;;;;;;;;;;;;;;10.97;70.80;101950.28;5080226;28;1393;-78
2023/04/21 05:15:03;;;;;;;;;;;;;;;11.00;70.58;101947.19;5063162;28;1894;-77
2023/04/21 05:17:31;;;;;;;;;;;;;;;11.04;70.35;101948.50;5080550;28;1999;-77
2023/04/21 05:19:57;;;;;;;;;;;;;;;11.03;70.36;101946.81;5081210;28;2619;-77
2023/04/21 05:22:24;;;;;;;;;;;;;;;11.12;69.89;101937.63;5080631;28;2006;-79
2023/04/21 05:24:51;;;;;;;;;;;;;;;11.18;69.67;101950.34;5080308;28;1908;-77
2023/04/21 05:27:17;;;;;;;;;;;;;;;11.25;69.23;101939.63;5081079;28;1029;-78
2023/04/21 05:29:44;;;;;;;;;;;;;;;11.18;69.44;101936.84;5061278;28;4978;-78
2023/04/21 05:32:11;;;;;;;;;;;;;;;11.11;69.82;101938.63;5062122;28;5102;-78
2023/04/21 05:34:37;;;;;;;;;;;;;;;11.24;69.23;101932.56;5078129;28;2130;-78
2023/04/21 05:37:04;;;;;;;;;;;;;;;11.22;69.24;101935.44;5080702;28;4020;-77
2023/04/21 05:39:30;;;;;;;;;;;;;;;11.23;68.90;101931.72;5081018;28;1037;-77
2023/04/21 05:41:57;;;;;;;;;;;;;;;11.16;69.34;101930.81;5078280;28;2110;-78
2023/04/21 05:44:24;;;;;;;;;;;;;;;11.12;69.41;101927.66;5075671;28;1975;-79
2023/04/21 05:46:51;;;;;;;;;;;;;;;11.21;68.93;101928.38;5051477;28;1841;-78
2023/04/21 05:49:17;;;;;;;;;;;;;;;11.15;69.03;101929.16;5069109;28;3378;-78
2023/04/21 05:51:44;;;;;;;;;;;;;;;11.18;69.09;101925.22;5067715;28;2050;-77
2023/04/21 05:54:10;;;;;;;;;;;;;;;11.21;68.98;101927.56;5067926;28;1774;-77
2023/04/21 05:56:37;;;;;;;;;;;;;;;11.18;68.93;101928.78;5067069;28;1824;-80
2023/04/21 05:59:05;;;;;;;;;;;;;;;11.19;68.52;101925.03;5068468;28;1700;-76
2023/04/21 06:01:32;;;;;;;;;;;;;;;11.10;69.12;101927.00;5050803;28;1940;-77
2023/04/21 06:03:58;;;;;;;;;;;;;;;11.10;68.93;101921.63;5058283;28;2127;-76
2023/04/21 06:06:25;;;;;;;;;;;;;;;11.08;68.97;101920.13;5073783;28;1668;-76
2023/04/21 06:08:52;;;;;;;;;;;;;;;10.95;69.42;101926.22;5073151;28;1664;-79
2023/04/21 06:11:18;;;;;;;;;;;;;;;10.86;69.58;101919.25;5071848;28;1985;-77
2023/04/21 06:13:45;;;;;;;;;;;;;;;10.95;69.29;101917.28;5072450;28;1989;-77
2023/04/21 06:16:11;;;;;;;;;;;;;;;10.86;69.63;101925.47;5079057;28;1672;-77
2023/04/21 06:18:38;;;;;;;;;;;;;;;10.67;70.25;101913.41;5084353;28;2068;-78
2023/04/21 06:21:04;;;;;;;;;;;;;;;10.62;70.52;101913.16;5081924;28;2045;-75
2023/04/21 06:23:31;;;;;;;;;;;;;;;10.53;70.63;101914.28;5066114;28;1486;-77
2023/04/21 06:25:57;;;;;;;;;;;;;;;10.69;70.25;101911.38;5083095;28;1963;-77
2023/04/21 06:28:24;;;;;;;;;;;;;;;10.57;70.50;101912.03;5067444;28;1163;-79
2023/04/21 06:30:51;;;;;;;;;;;;;;;10.47;70.75;101904.25;5083519;28;1979;-77
2023/04/21 06:33:19;;;;;;;;;;;;;;;10.38;71.20;101899.94;5060004;28;5033;-77
2023/04/21 06:35:45;;;;;;;;;;;;;;;10.30;71.54;101898.19;5068303;28;3598;-78
2023/04/21 06:38:12;;;;;;;;;;;;;;;10.27;71.54;101898.56;5074713;28;3636;-77
2023/04/21 06:40:39;;;;;;;;;;;;;;;10.36;71.15;101902.84;5071598;28;1844;-78
2023/04/21 06:43:09;;;;;;;;;;;;;;;10.42;70.87;101891.31;5071313;28;1942;-78
2023/04/21 06:45:38;;;;;;;;;;;;;;;10.37;71.04;101896.44;5081437;28;1944;-78
2023/04/21 06:48:08;;;;;;;;;;;;;;;10.28;71.47;101888.63;5056321;28;1585;-78
2023/04/21 06:50:34;;;;;;;;;;;;;;;10.25;71.42;101892.50;5054854;28;3532;-80
2023/04/21 06:53:01;;;;;;;;;;;;;;;10.29;71.30;101890.28;5071236;28;2293;-79
2023/04/21 06:55:27;;;;;;;;;;;;;;;10.27;71.31;101886.97;5070921;28;1727;-76
2023/04/21 06:57:54;;;;;;;;;;;;;;;10.26;71.15;101883.38;5063787;28;1671;-78
2023/04/21 07:00:25;;;;;;;;;;;;;;;10.28;71.31;101883.25;5055201;28;1991;-77
2023/04/21 07:02:51;;;;;;;;;;;;;;;10.27;71.48;101878.91;5051660;28;1704;-77
2023/04/21 07:05:18;;;;;;;;;;;;;;;10.37;70.97;101874.88;5072301;28;2030;-78
2023/04/21 07:07:44;;;;;;;;;;;;;;;10.39;70.83;101869.31;5056366;28;2031;-76
2023/04/21 07:10:11;;;;;;;;;;;;;;;10.26;71.22;101864.53;5057049;28;1989;-77
2023/04/21 07:12:38;;;;;;;;;;;;;;;10.24;70.20;101862.03;5070131;28;2044;-77
2023/04/21 07:15:06;;;;;;;;;;;;;;;10.28;70.71;101856.31;5061786;28;2113;-77
2023/04/21 07:17:33;;;;;;;;;;;;;;;10.26;70.97;101859.16;5071827;28;2049;-76
2023/04/21 07:19:59;;;;;;;;;;;;;;;10.23;71.02;101864.91;5059961;28;1821;-79
2023/04/21 07:22:26;;;;;;;;;;;;;;;10.19;71.19;101860.94;5063194;28;1520;-78
2023/04/21 07:24:52;;;;;;;;;;;;;;;10.24;70.93;101853.13;5064209;28;1070;-77
2023/04/21 07:27:19;;;;;;;;;;;;;;;10.19;71.02;101847.47;5062289;28;2185;-77
2023/04/21 07:29:45;;;;;;;;;;;;;;;10.18;71.14;101846.63;5077152;28;1983;-76
2023/04/21 07:32:12;;;;;;;;;;;;;;;10.17;71.11;101841.44;5071556;28;3573;-78
2023/04/21 07:34:39;;;;;;;;;;;;;;;10.17;71.10;101844.13;5065910;28;4085;-78
2023/04/21 07:37:05;;;;;;;;;;;;;;;10.21;71.13;101838.19;5052570;28;3571;-79
2023/04/21 07:39:32;;;;;;;;;;;;;;;10.17;71.23;101838.72;5080966;28;2049;-79
2023/04/21 07:41:58;;;;;;;;;;;;;;;10.15;71.29;101844.31;5080818;28;3346;-79
2023/04/21 07:44:25;;;;;;;;;;;;;;;10.16;71.15;101829.00;5078272;28;2116;-79
2023/04/21 07:46:51;;;;;;;;;;;;;;;10.15;70.99;101827.34;5064176;28;2194;-78
2023/04/21 07:49:18;;;;;;;;;;;;;;;10.17;70.92;101826.09;5080924;28;2035;-78
2023/04/21 07:51:44;;;;;;;;;;;;;;;10.16;71.15;101820.91;5078466;28;2159;-79
2023/04/21 07:54:11;;;;;;;;;;;;;;;10.17;71.31;101825.28;5081223;28;3392;-78
2023/04/21 07:56:38;;;;;;;;;;;;;;;10.16;71.13;101810.97;5081304;28;2048;-79
2023/04/21 07:59:05;;;;;;;;;;;;;;;10.19;70.99;101815.16;5081526;28;1066;-78
2023/04/21 08:01:32;;;;;;;;;;;;;;;10.17;71.20;101817.19;5061144;28;2237;-79
2023/04/21 08:03:58;;;;;;;;;;;;;;;10.16;71.35;101820.91;5065425;28;2035;-77
2023/04/21 08:06:26;;;;;;;;;;;;;;;10.19;71.07;101821.38;5080875;28;2291;-79
2023/04/21 08:08:53;;;;;;;;;;;;;;;10.21;71.13;101813.97;5070352;28;3859;-80
2023/04/21 08:11:19;;;;;;;;;;;;;;;10.17;70.92;101815.34;5077967;28;2822;-78
2023/04/21 08:13:46;;;;;;;;;;;;;;;10.20;71.29;101814.97;5074454;28;2954;-81
2023/04/21 08:16:12;;;;;;;;;;;;;;;10.18;71.38;101805.44;5069927;28;2989;-80
2023/04/21 08:18:39;;;;;;;;;;;;;;;10.18;71.45;101808.13;5070664;28;1587;-79
2023/04/21 08:21:05;;;;;;;;;;;;;;;10.29;70.73;101807.66;5075272;28;2310;-77
2023/04/21 08:23:32;;;;;;;;;;;;;;;10.19;71.41;101797.16;5077155;28;2268;-79
2023/04/21 08:25:59;;;;;;;;;;;;;;;10.18;71.47;101802.72;5077704;28;2384;-78
2023/04/21 08:28:25;;;;;;;;;;;;;;;10.23;71.24;101795.78;5055440;28;2186;-79
2023/04/21 08:30:52;;;;;;;;;;;;;;;10.24;71.13;101791.22;5054989;28;2520;-78
2023/04/21 08:33:18;;;;;;;;;;;;;;;10.34;70.78;101785.56;5079169;28;2137;-78
2023/04/21 08:35:45;;;;;;;;;;;;;;;10.34;70.61;101781.00;5060917;28;2490;-79
2023/04/21 08:38:11;;;;;;;;;;;;;;;10.24;71.15;101781.28;5075179;28;2042;-78
2023/04/21 08:40:38;;;;;;;;;;;;;;;10.31;70.97;101783.25;5077090;28;2042;-77
2023/04/21 08:43:05;;;;;;;;;;;;;;;10.24;71.11;101786.66;5054104;28;4814;-78
2023/04/21 08:45:32;;;;;;;;;;;;;;;10.25;71.30;101779.41;5057985;28;1968;-79
2023/04/21 08:47:59;;;;;;;;;;;;;;;10.27;71.39;101787.34;5074226;28;3740;-79
2023/04/21 08:50:25;;;;;;;;;;;;;;;10.33;71.05;101784.72;5074685;28;2136;-77
2023/04/21 08:52:53;;;;;;;;;;;;;;;10.32;71.33;101782.22;5074573;28;1818;-78
2023/04/21 08:55:20;;;;;;;;;;;;;;;10.29;71.30;101771.81;5054870;28;2166;-79
2023/04/21 08:57:46;;;;;;;;;;;;;;;10.26;71.57;101777.53;5079840;28;2192;-77
2023/04/21 09:00:13;;;;;;;;;;;;;;;10.26;71.39;101774.84;5080097;28;3245;-78
2023/04/21 09:02:39;;;;;;;;;;;;;;;10.28;71.50;101768.28;5078476;28;2084;-80
2023/04/21 09:05:06;;;;;;;;;;;;;;;10.28;71.43;101768.28;5076604;28;1864;-79
2023/04/21 09:07:32;;;;;;;;;;;;;;;10.23;71.77;101770.66;5063358;28;2094;-79
2023/04/21 09:10:00;;;;;;;;;;;;;;;10.24;71.63;101770.50;5080440;28;2231;-78
2023/04/21 09:12:26;;;;;;;;;;;;;;;10.26;71.55;101770.28;5071918;28;2089;-78
2023/04/21 09:14:53;;;;;;;;;;;;;;;10.26;71.59;101774.84;5077234;28;2070;-76
2023/04/21 09:17:20;;;;;;;;;;;;;;;10.25;71.64;101774.03;5079904;28;1344;-78
2023/04/21 09:19:46;;;;;;;;;;;;;;;10.25;71.78;101765.94;5079153;28;2196;-75
2023/04/21 09:22:13;;;;;;;;;;;;;;;10.24;71.93;101762.44;5080465;28;2372;-77
2023/04/21 09:24:39;;;;;;;;;;;;;;;10.28;71.71;101756.69;5079338;28;2256;-77
2023/04/21 09:27:06;;;;;;;;;;;;;;;10.29;71.58;101772.66;5077495;28;2490;-80
2023/04/21 09:29:32;;;;;;;;;;;;;;;10.29;71.82;101758.34;5064706;28;1310;-77
2023/04/21 09:31:59;;;;;;;;;;;;;;;10.29;71.69;101758.34;5082785;28;1906;-78
2023/04/21 09:34:25;;;;;;;;;;;;;;;10.32;71.99;101755.28;5062642;28;1295;-78
2023/04/21 09:36:52;;;;;;;;;;;;;;;10.33;71.71;101751.59;5081885;28;2061;-80
2023/04/21 09:39:18;;;;;;;;;;;;;;;10.32;71.98;101757.97;5086240;28;2041;-78
2023/04/21 09:41:45;;;;;;;;;;;;;;;10.32;71.95;101745.34;5066694;28;4418;-78
2023/04/21 09:44:11;;;;;;;;;;;;;;;10.35;71.94;101749.50;5084155;28;4936;-78
2023/04/21 09:46:38;;;;;;;;;;;;;;;10.35;71.88;101745.00;5085081;28;2132;-78
2023/04/21 09:49:05;;;;;;;;;;;;;;;10.34;72.05;101739.78;5085837;28;3909;-77
2023/04/21 09:51:31;;;;;;;;;;;;;;;10.33;71.77;101738.13;5065833;28;2222;-76
2023/04/21 09:53:58;;;;;;;;;;;;;;;10.32;72.02;101728.34;5086130;28;2161;-77
2023/04/21 09:56:25;;;;;;;;;;;;;;;10.30;71.98;101725.88;5084082;28;2164;-80
2023/04/21 09:58:52;;;;;;;;;;;;;;;10.34;72.08;101726.31;5081529;28;1631;-79
2023/04/21 10:01:18;;;;;;;;;;;;;;;10.37;72.11;101725.94;5080666;28;3952;-80
2023/04/21 10:03:45;;;;;;;;;;;;;;;10.35;72.28;101720.75;5065248;28;2083;-77
2023/04/21 10:06:12;;;;;;;;;;;;;;;10.37;72.31;101721.38;5066041;28;2051;-77
2023/04/21 10:08:38;;;;;;;;;;;;;;;10.38;72.26;101716.81;5063288;28;2179;-79
2023/04/21 10:11:05;;;;;;;;;;;;;;;10.39;72.34;101708.56;5062999;28;2076;-75
2023/04/21 10:13:32;;;;;;;;;;;;;;;10.38;72.35;101706.03;5083829;28;2197;-78
2023/04/21 10:15:58;;;;;;;;;;;;;;;10.38;72.51;101697.97;5081428;28;2091;-77
2023/04/21 10:18:25;;;;;;;;;;;;;;;10.39;72.38;101702.34;5082836;28;1903;-77
2023/04/21 10:20:53;;;;;;;;;;;;;;;10.40;72.60;101701.31;5080187;28;1956;-77
2023/04/21 10:23:20;;;;;;;;;;;;;;;10.41;72.66;101700.28;5066446;28;2067;-77
2023/04/21 10:25:47;;;;;;;;;;;;;;;10.43;72.44;101700.94;5084789;28;2267;-78
2023/04/21 10:28:13;;;;;;;;;;;;;;;10.42;72.73;101692.03;5085692;28;1025;-77
2023/04/21 10:30:40;;;;;;;;;;;;;;;10.42;72.74;101686.63;5083021;28;2100;-78
2023/04/21 10:33:06;;;;;;;;;;;;;;;10.44;72.42;101681.03;5083087;28;2029;-77
2023/04/21 10:35:33;;;;;;;;;;;;;;;10.43;73.14;101677.53;5081302;28;2226;-77
2023/04/21 10:38:00;;;;;;;;;;;;;;;10.44;72.60;101675.66;5082155;28;2267;-80
2023/04/21 10:40:26;;;;;;;;;;;;;;;10.46;72.80;101679.00;5064509;28;2149;-78
2023/04/21 10:42:53;;;;;;;;;;;;;;;10.45;72.72;101672.78;5082304;28;2075;-77
2023/04/21 10:45:19;;;;;;;;;;;;;;;10.47;72.89;101664.53;5065122;28;2165;-77
2023/04/21 10:47:47;;;;;;;;;;;;;;;10.48;72.62;101666.19;5064837;28;4526;-78
2023/04/21 10:50:14;;;;;;;;;;;;;;;10.49;72.75;101657.06;5082653;28;4463;-76
2023/04/21 10:52:40;;;;;;;;;;;;;;;10.51;72.96;101657.72;5083136;28;1983;-77
2023/04/21 10:55:07;;;;;;;;;;;;;;;10.52;73.00;101650.47;5079747;28;3250;-78
2023/04/21 10:57:33;;;;;;;;;;;;;;;10.54;72.89;101651.94;5082477;28;2246;-79
2023/04/21 11:00:04;;;;;;;;;;;;;;;10.55;72.98;101644.69;5064138;28;2178;-79
2023/04/21 11:02:31;;;;;;;;;;;;;;;10.56;72.97;101643.66;5065608;28;1878;-79
2023/04/21 11:04:57;;;;;;;;;;;;;;;10.56;73.02;101644.53;5080786;28;1939;-78
2023/04/21 11:07:24;;;;;;;;;;;;;;;10.58;73.00;101631.66;5066449;28;3367;-77
2023/04/21 11:09:50;;;;;;;;;;;;;;;10.59;73.19;101635.19;5064800;28;2057;-77
2023/04/21 11:12:17;;;;;;;;;;;;;;;10.60;73.20;101632.31;5083913;28;2184;-78
2023/04/21 11:14:45;;;;;;;;;;;;;;;10.61;73.31;101615.13;5063616;28;2130;-78
2023/04/21 11:17:11;;;;;;;;;;;;;;;10.63;73.33;101613.06;5067143;28;2419;-77
2023/04/21 11:19:38;;;;;;;;;;;;;;;10.64;73.50;101619.28;5080676;28;2076;-79
2023/04/21 11:22:04;;;;;;;;;;;;;;;10.66;73.30;101614.53;5082356;28;2221;-78
2023/04/21 11:24:31;;;;;;;;;;;;;;;10.67;73.49;101616.19;5062017;28;1817;-78
2023/04/21 11:26:59;;;;;;;;;;;;;;;10.68;73.46;101612.50;5061373;28;2160;-77
2023/04/21 11:29:28;;;;;;;;;;;;;;;10.70;73.46;101607.72;5062346;28;2402;-79
2023/04/21 11:31:54;;;;;;;;;;;;;;;10.69;73.60;101600.69;5062478;28;2030;-78
2023/04/21 11:34:21;;;;;;;;;;;;;;;10.73;73.64;101598.44;5061859;28;2280;-78
2023/04/21 11:36:47;;;;;;;;;;;;;;;10.74;73.77;101594.72;5062421;28;2459;-79
2023/04/21 11:39:14;;;;;;;;;;;;;;;10.75;73.73;101591.81;5063880;28;1037;-78
2023/04/21 11:41:41;;;;;;;;;;;;;;;10.75;73.75;101586.44;5061774;28;2070;-78
2023/04/21 11:44:07;;;;;;;;;;;;;;;10.78;73.88;101585.22;5062727;28;2183;-80
2023/04/21 11:46:35;;;;;;;;;;;;;;;10.78;73.80;101591.44;5059726;28;2121;-78
2023/04/21 11:49:03;;;;;;;;;;;;;;;10.80;73.79;101585.84;5067308;28;4748;-78
2023/04/21 11:51:30;;;;;;;;;;;;;;;10.82;73.75;101583.78;5061658;28;4043;-77
2023/04/21 11:53:56;;;;;;;;;;;;;;;10.84;73.88;101576.34;5059824;28;1987;-77
2023/04/21 11:56:23;;;;;;;;;;;;;;;10.86;73.90;101568.91;5060276;28;3463;-74
2023/04/21 11:58:49;;;;;;;;;;;;;;;10.86;73.97;101569.72;5061581;28;2193;-74
2023/04/21 12:01:16;;;;;;;;;;;;;;;10.88;73.96;101569.50;5060531;28;2034;-78
2023/04/21 12:03:42;;;;;;;;;;;;;;;10.90;73.96;101565.59;5061384;28;978;-73
2023/04/21 12:06:09;;;;;;;;;;;;;;;10.91;73.77;101561.88;5061724;28;1904;-74
2023/04/21 12:08:36;;;;;;;;;;;;;;;10.94;74.02;101559.81;5062517;28;3451;-75
2023/04/21 12:11:02;;;;;;;;;;;;;;;10.95;74.02;101561.50;5061351;28;2173;-76
2023/04/21 12:13:30;;;;;;;;;;;;;;;10.96;73.98;101560.44;5057331;28;2206;-78
2023/04/21 12:15:56;;;;;;;;;;;;;;;10.96;74.08;101544.28;5058036;28;1172;-77
2023/04/21 12:18:23;;;;;;;;;;;;;;;10.97;74.11;101540.53;5062107;28;1084;-75
2023/04/21 12:20:49;;;;;;;;;;;;;;;10.98;73.96;101531.44;5062522;28;1179;-75
2023/04/21 12:23:16;;;;;;;;;;;;;;;11.00;74.08;101538.31;5060937;28;1164;-76
2023/04/21 12:25:43;;;;;;;;;;;;;;;11.02;74.03;101533.53;5060729;28;1334;-77
2023/04/21 12:28:10;;;;;;;;;;;;;;;11.04;74.17;101530.66;5062757;28;1639;-76
2023/04/21 12:30:36;;;;;;;;;;;;;;;11.07;74.03;101532.94;5062969;28;1009;-77
2023/04/21 12:33:03;;;;;;;;;;;;;;;11.08;74.19;101530.03;5062164;28;1910;-76
2023/04/21 12:35:32;;;;;;;;;;;;;;;11.11;74.07;101523.41;5062853;28;1030;-77
2023/04/21 12:37:58;;;;;;;;;;;;;;;11.12;74.35;101517.00;5077802;28;1304;-77
2023/04/21 12:40:25;;;;;;;;;;;;;;;11.14;74.36;101517.63;5061817;28;2046;-77
2023/04/21 12:42:52;;;;;;;;;;;;;;;11.16;74.36;101514.75;5062136;28;992;-76
2023/04/21 12:45:19;;;;;;;;;;;;;;;11.17;74.35;101508.31;5058886;28;1069;-76